createdAt,value
2023-03-17T00:02:01.872Z,84.01
2023-03-17T00:04:06.206Z,83.83
2023-03-17T00:06:16.083Z,83.94
2023-03-17T00:08:23.038Z,84.39
2023-03-17T00:10:26.894Z,84.95
2023-03-17T00:12:30.042Z,84.90
2023-03-17T00:14:32.668Z,85.31
2023-03-17T00:16:38.967Z,85.13
2023-03-17T00:18:41.610Z,85.15
2023-03-17T00:20:47.665Z,85.77
2023-03-17T00:22:51.065Z,85.59
2023-03-17T00:24:53.740Z,85.65
2023-03-17T00:26:56.341Z,86.03
2023-03-17T00:28:58.948Z,85.81
2023-03-17T00:31:07.661Z,86.15
2023-03-17T00:33:12.414Z,85.96
2023-03-17T00:35:21.770Z,85.56
2023-03-17T00:37:25.790Z,85.93
2023-03-17T00:39:28.429Z,85.57
2023-03-17T00:41:31.073Z,85.56
2023-03-17T00:43:33.670Z,85.93
2023-03-17T00:45:36.876Z,86.68
2023-03-17T00:47:40.239Z,86.77
2023-03-17T00:49:42.906Z,86.91
2023-03-17T00:51:46.329Z,87.36
2023-03-17T00:53:50.369Z,87.20
2023-03-17T00:55:53.068Z,86.90
2023-03-17T00:57:55.620Z,87.82
2023-03-17T00:59:58.277Z,87.71
2023-03-17T01:02:01.000Z,87.68
2023-03-17T01:04:04.213Z,88.14
2023-03-17T01:06:09.416Z,88.10
2023-03-17T01:08:12.154Z,88.80
2023-03-17T01:10:19.304Z,88.57
2023-03-17T01:12:21.990Z,88.76
2023-03-17T01:14:25.731Z,89.04
2023-03-17T01:16:28.972Z,89.00
2023-03-17T01:18:31.711Z,88.60
2023-03-17T01:20:35.527Z,88.88
2023-03-17T01:22:38.246Z,88.63
2023-03-17T01:24:41.130Z,89.21
2023-03-17T01:26:45.194Z,89.07
2023-03-17T01:28:47.791Z,89.11
2023-03-17T01:30:51.031Z,89.62
2023-03-17T01:32:54.099Z,89.58
2023-03-17T01:34:56.926Z,89.71
2023-03-17T01:37:00.032Z,89.88
2023-03-17T01:39:03.432Z,89.75
2023-03-17T01:41:06.377Z,89.98
2023-03-17T01:43:20.794Z,89.76
2023-03-17T01:46:01.020Z,90.01
2023-03-17T01:48:03.708Z,89.74
2023-03-17T01:50:09.842Z,90.19
2023-03-17T01:52:16.463Z,90.27
2023-03-17T01:54:24.243Z,90.12
2023-03-17T01:56:27.046Z,89.90
2023-03-17T01:58:33.397Z,89.66
2023-03-17T02:00:36.347Z,89.53
2023-03-17T02:02:41.818Z,88.88
2023-03-17T02:04:44.477Z,89.34
2023-03-17T02:06:57.367Z,89.61
2023-03-17T02:09:01.715Z,90.43
2023-03-17T02:11:05.346Z,91.16
2023-03-17T02:13:11.582Z,91.78
2023-03-17T02:15:15.682Z,91.42
2023-03-17T02:17:19.029Z,91.47
2023-03-17T02:19:21.911Z,92.04
2023-03-17T02:21:45.174Z,92.21
2023-03-17T02:23:47.801Z,91.90
2023-03-17T02:25:52.774Z,91.89
2023-03-17T02:28:00.224Z,91.57
2023-03-17T02:30:03.005Z,91.56
2023-03-17T02:32:06.744Z,91.23
2023-03-17T02:34:09.359Z,91.61
2023-03-17T02:36:11.979Z,92.23
2023-03-17T02:38:15.923Z,92.17
2023-03-17T02:40:18.984Z,92.05
2023-03-17T02:42:22.038Z,92.10
2023-03-17T02:44:24.845Z,91.94
2023-03-17T02:46:27.681Z,92.05
2023-03-17T02:48:30.615Z,92.22
2023-03-17T02:50:33.555Z,91.33
2023-03-17T02:52:36.525Z,91.04
2023-03-17T02:54:40.676Z,90.57
2023-03-17T02:56:43.351Z,91.46
2023-03-17T02:58:46.362Z,92.49
2023-03-17T03:00:49.673Z,91.83
2023-03-17T03:02:52.765Z,91.85
2023-03-17T03:04:56.410Z,92.31
2023-03-17T03:06:59.494Z,92.12
2023-03-17T03:09:02.058Z,91.25
2023-03-17T03:11:06.256Z,91.89
2023-03-17T03:13:07.940Z,91.94
2023-03-17T03:15:11.535Z,91.26
2023-03-17T03:17:14.207Z,90.97
2023-03-17T03:19:17.441Z,90.41
2023-03-17T03:21:20.115Z,90.30
2023-03-17T03:23:23.179Z,90.01
2023-03-17T03:25:25.826Z,90.69
2023-03-17T03:27:29.832Z,91.64
2023-03-17T03:29:32.426Z,91.56
2023-03-17T03:31:35.062Z,90.90
2023-03-17T03:33:37.666Z,91.41
2023-03-17T03:35:40.913Z,91.41
2023-03-17T03:37:43.525Z,91.56
2023-03-17T03:39:46.117Z,92.22
2023-03-17T03:41:48.771Z,92.17
2023-03-17T03:43:53.117Z,91.12
2023-03-17T03:45:55.779Z,90.99
2023-03-17T03:47:58.386Z,92.53
2023-03-17T03:50:01.042Z,93.33
2023-03-17T03:52:03.664Z,92.80
2023-03-17T03:54:06.325Z,93.24
2023-03-17T03:56:09.234Z,93.07
2023-03-17T03:58:11.801Z,93.73
2023-03-17T04:00:17.748Z,93.56
2023-03-17T04:02:20.472Z,93.47
2023-03-17T04:04:23.478Z,94.12
2023-03-17T04:06:26.203Z,94.03
2023-03-17T04:08:28.815Z,94.32
2023-03-17T04:10:31.848Z,94.12
2023-03-17T04:12:34.654Z,93.59
2023-03-17T04:14:37.665Z,93.62
2023-03-17T04:16:43.616Z,93.52
2023-03-17T04:18:46.334Z,93.67
2023-03-17T04:20:49.086Z,94.66
2023-03-17T04:22:51.771Z,95.36
2023-03-17T04:24:54.405Z,95.21
2023-03-17T04:26:57.499Z,94.99
2023-03-17T04:29:00.157Z,94.88
2023-03-17T04:31:02.750Z,94.69
2023-03-17T04:33:07.136Z,95.27
2023-03-17T04:35:13.873Z,94.40
2023-03-17T04:37:16.663Z,95.05
2023-03-17T04:39:19.260Z,94.68
2023-03-17T04:41:22.222Z,95.44
2023-03-17T04:43:24.911Z,95.05
2023-03-17T04:45:27.544Z,96.08
2023-03-17T04:47:30.194Z,96.09
2023-03-17T04:49:34.403Z,95.68
2023-03-17T04:51:37.624Z,95.82
2023-03-17T04:53:40.376Z,96.31
2023-03-17T04:55:42.985Z,97.16
2023-03-17T04:57:45.889Z,96.84
2023-03-17T04:59:48.534Z,96.50
2023-03-17T05:01:51.285Z,97.32
2023-03-17T05:03:56.131Z,96.83
2023-03-17T05:06:00.473Z,97.08
2023-03-17T05:08:03.295Z,97.75
2023-03-17T05:10:06.654Z,97.74
2023-03-17T05:12:10.424Z,97.94
2023-03-17T05:14:13.313Z,98.74
2023-03-17T05:16:16.335Z,98.55
2023-03-17T05:18:19.807Z,98.88
2023-03-17T05:20:22.535Z,99.50
2023-03-17T05:22:27.153Z,99.52
2023-03-17T05:24:29.712Z,99.30
2023-03-17T05:26:32.281Z,98.38
2023-03-17T05:28:35.121Z,98.50
2023-03-17T05:30:37.830Z,98.40
2023-03-17T05:32:40.539Z,97.81
2023-03-17T05:34:43.194Z,96.70
2023-03-17T05:36:46.359Z,97.35
2023-03-17T05:38:50.561Z,97.93
2023-03-17T05:40:53.548Z,98.72
2023-03-17T05:42:56.784Z,99.24
2023-03-17T05:44:59.435Z,97.40
2023-03-17T05:47:02.111Z,97.29
2023-03-17T05:49:04.710Z,96.59
2023-03-17T05:51:07.417Z,95.61
2023-03-17T05:53:10.569Z,94.74
2023-03-17T05:55:14.606Z,93.72
2023-03-17T05:57:17.253Z,93.24
2023-03-17T05:59:20.000Z,92.52
2023-03-17T06:01:22.565Z,91.82
2023-03-17T06:03:25.410Z,90.68
2023-03-17T06:05:28.167Z,88.49
2023-03-17T06:07:41.364Z,87.52
2023-03-17T06:09:53.054Z,86.88
2023-03-17T06:11:57.653Z,86.52
2023-03-17T06:14:00.312Z,86.43
2023-03-17T06:16:03.089Z,84.25
2023-03-17T06:18:06.378Z,83.98
2023-03-17T06:20:10.310Z,83.33
2023-03-17T06:22:13.277Z,82.37
2023-03-17T06:24:16.107Z,80.43
2023-03-17T06:26:18.766Z,79.07
2023-03-17T06:28:23.100Z,77.28
2023-03-17T06:30:25.716Z,78.09
2023-03-17T06:32:28.421Z,77.93
2023-03-17T06:34:31.409Z,76.65
2023-03-17T06:36:35.216Z,75.64
2023-03-17T06:38:39.235Z,75.05
2023-03-17T06:40:41.838Z,75.74
2023-03-17T06:42:44.521Z,75.00
2023-03-17T06:44:48.532Z,74.63
2023-03-17T06:46:51.356Z,72.82
2023-03-17T06:48:54.113Z,71.95
2023-03-17T06:50:57.152Z,72.21
2023-03-17T06:52:59.709Z,70.35
2023-03-17T06:55:02.308Z,69.78
2023-03-17T06:57:05.057Z,68.24
2023-03-17T06:59:07.750Z,67.44
2023-03-17T07:01:12.062Z,65.92
2023-03-17T07:03:14.701Z,66.77
2023-03-17T07:05:17.899Z,65.82
2023-03-17T07:07:20.819Z,65.62
2023-03-17T07:09:23.484Z,66.80
2023-03-17T07:11:26.235Z,67.97
2023-03-17T07:13:28.898Z,68.56
2023-03-17T07:15:34.888Z,68.46
2023-03-17T07:17:39.348Z,68.05
2023-03-17T07:19:42.318Z,67.63
2023-03-17T07:21:46.905Z,65.74
2023-03-17T07:23:49.688Z,65.63
2023-03-17T07:25:52.540Z,65.68
2023-03-17T07:27:55.129Z,63.85
2023-03-17T07:29:57.790Z,64.87
2023-03-17T07:32:00.479Z,65.59
2023-03-17T07:34:04.661Z,63.79
2023-03-17T07:36:09.007Z,63.10
2023-03-17T07:38:12.170Z,63.10
2023-03-17T07:40:15.137Z,61.33
2023-03-17T07:42:18.420Z,60.74
2023-03-17T07:44:21.106Z,60.98
2023-03-17T07:46:24.004Z,60.35
2023-03-17T07:48:26.780Z,59.23
2023-03-17T07:50:30.915Z,58.69
2023-03-17T07:52:34.249Z,59.67
2023-03-17T07:54:37.569Z,58.16
2023-03-17T07:56:41.100Z,57.09
2023-03-17T07:58:43.783Z,56.16
2023-03-17T08:00:46.492Z,54.70
2023-03-17T08:03:03.225Z,55.02
2023-03-17T08:05:12.051Z,56.45
2023-03-17T08:07:16.047Z,56.38
2023-03-17T08:09:18.693Z,54.84
2023-03-17T08:11:21.973Z,54.25
2023-03-17T08:13:24.615Z,53.54
2023-03-17T08:15:27.414Z,54.79
2023-03-17T08:17:30.060Z,54.17
2023-03-17T08:19:32.750Z,53.77
2023-03-17T08:21:35.369Z,52.14
2023-03-17T08:23:39.471Z,52.10
2023-03-17T08:25:42.591Z,51.60
2023-03-17T08:27:45.227Z,52.43
2023-03-17T08:29:48.560Z,52.10
2023-03-17T08:31:51.355Z,54.00
2023-03-17T08:33:56.969Z,53.06
2023-03-17T08:36:00.245Z,54.27
2023-03-17T08:38:02.990Z,54.47
2023-03-17T08:40:10.011Z,52.90
2023-03-17T08:42:12.895Z,51.80
2023-03-17T08:44:16.577Z,51.91
2023-03-17T08:46:21.846Z,51.36
2023-03-17T08:48:24.906Z,50.27
2023-03-17T08:50:27.785Z,50.05
2023-03-17T08:52:30.560Z,48.23
2023-03-17T08:54:35.749Z,47.37
2023-03-17T08:56:41.929Z,49.56
2023-03-17T08:58:44.771Z,49.38
2023-03-17T09:00:48.922Z,49.78
2023-03-17T09:02:51.699Z,50.34
2023-03-17T09:04:54.459Z,50.33
2023-03-17T09:07:04.791Z,49.04
2023-03-17T09:09:07.642Z,49.62
2023-03-17T09:11:10.654Z,47.74
2023-03-17T09:13:14.965Z,44.13
2023-03-17T09:15:17.643Z,43.56
2023-03-17T09:17:20.391Z,43.67
2023-03-17T09:19:23.754Z,40.40
2023-03-17T09:21:27.303Z,39.65
2023-03-17T09:23:30.200Z,40.16
2023-03-17T09:25:32.856Z,40.04
2023-03-17T09:27:36.308Z,40.91
2023-03-17T09:29:40.526Z,42.20
2023-03-17T09:31:43.787Z,41.19
2023-03-17T09:33:47.345Z,42.42
2023-03-17T09:35:52.631Z,41.55
2023-03-17T09:37:55.585Z,43.44
2023-03-17T09:39:58.921Z,44.43
2023-03-17T09:42:21.392Z,45.49
2023-03-17T09:44:38.586Z,45.27
2023-03-17T09:46:54.616Z,45.19
2023-03-17T09:49:02.387Z,45.31
2023-03-17T09:51:10.155Z,46.16
2023-03-17T09:53:18.910Z,45.03
2023-03-17T09:55:28.380Z,43.87
2023-03-17T09:57:34.201Z,42.04
2023-03-17T09:59:40.505Z,41.58
2023-03-17T10:01:44.649Z,41.58
2023-03-17T10:03:47.741Z,41.97
2023-03-17T10:05:50.499Z,40.75
2023-03-17T10:08:04.295Z,37.70
2023-03-17T10:10:15.481Z,34.53
2023-03-17T10:12:28.887Z,34.04
2023-03-17T10:14:42.183Z,36.21
2023-03-17T10:16:53.956Z,37.85
2023-03-17T10:19:01.724Z,38.86
2023-03-17T10:21:07.610Z,37.49
2023-03-17T10:23:15.002Z,38.07
2023-03-17T10:25:20.298Z,39.05
2023-03-17T10:27:23.059Z,39.26
2023-03-17T10:29:26.116Z,39.62
2023-03-17T10:31:32.592Z,40.15
2023-03-17T10:33:36.634Z,39.26
2023-03-17T10:35:40.556Z,39.73
2023-03-17T10:37:44.171Z,37.86
2023-03-17T10:39:49.152Z,36.06
2023-03-17T10:41:58.132Z,38.39
2023-03-17T10:44:00.853Z,37.16
2023-03-17T10:46:05.778Z,36.34
2023-03-17T10:48:10.590Z,36.35
2023-03-17T10:50:24.557Z,38.13
2023-03-17T10:52:30.127Z,37.60
2023-03-17T10:54:36.686Z,37.90
2023-03-17T10:56:42.419Z,37.36
2023-03-17T10:58:49.153Z,38.61
2023-03-17T11:00:57.207Z,37.68
2023-03-17T11:03:00.952Z,38.95
2023-03-17T11:05:06.655Z,39.34
2023-03-17T11:07:17.727Z,39.92
2023-03-17T11:09:21.548Z,41.14
2023-03-17T11:11:27.082Z,42.02
2023-03-17T11:13:31.244Z,42.02
2023-03-17T11:15:36.170Z,43.50
2023-03-17T11:17:43.578Z,43.63
2023-03-17T11:19:55.681Z,43.62
2023-03-17T11:22:06.248Z,43.75
2023-03-17T11:24:15.077Z,43.52
2023-03-17T11:26:33.015Z,42.84
2023-03-17T11:28:41.011Z,43.06
2023-03-17T11:30:52.242Z,42.92
2023-03-17T11:32:58.702Z,41.64
2023-03-17T11:35:08.782Z,42.43
2023-03-17T11:37:22.684Z,42.48
2023-03-17T11:39:29.130Z,42.58
2023-03-17T11:42:07.252Z,43.48
2023-03-17T11:44:41.677Z,42.87
2023-03-17T11:46:52.214Z,43.27
2023-03-17T11:49:02.808Z,41.94
2023-03-17T11:51:20.130Z,42.40
2023-03-17T11:53:44.799Z,42.01
2023-03-17T11:55:54.485Z,40.85
2023-03-17T11:58:01.002Z,40.64
2023-03-17T12:00:06.066Z,41.07
2023-03-17T12:02:21.593Z,41.38
2023-03-17T12:04:34.227Z,40.23
2023-03-17T12:06:43.541Z,37.05
2023-03-17T12:08:52.554Z,38.54
2023-03-17T12:11:01.020Z,40.58
2023-03-17T12:13:09.146Z,39.97
2023-03-17T12:15:18.735Z,40.14
2023-03-17T12:17:26.894Z,40.66
2023-03-17T12:19:37.911Z,39.83
2023-03-17T12:21:45.895Z,39.11
2023-03-17T12:23:50.019Z,38.23
2023-03-17T12:26:00.277Z,38.04
2023-03-17T12:28:08.502Z,36.88
2023-03-17T12:30:25.072Z,36.25
2023-03-17T12:32:36.739Z,37.72
2023-03-17T12:34:46.177Z,39.02
2023-03-17T12:36:49.800Z,38.10
2023-03-17T12:38:57.049Z,38.74
2023-03-17T12:41:34.159Z,37.90
2023-03-17T12:43:42.592Z,38.23
2023-03-17T12:45:59.703Z,38.95
2023-03-17T12:48:32.564Z,37.20
2023-03-17T12:51:08.430Z,37.80
2023-03-17T12:53:26.712Z,38.47
2023-03-17T12:55:33.679Z,37.47
2023-03-17T12:57:41.858Z,37.97
2023-03-17T12:59:46.893Z,35.58
2023-03-17T13:01:58.151Z,36.07
2023-03-17T13:04:14.467Z,35.33
2023-03-17T13:06:22.449Z,34.66
2023-03-17T13:08:30.814Z,34.51
2023-03-17T13:10:42.901Z,35.10
2023-03-17T13:13:25.359Z,37.00
2023-03-17T13:15:49.209Z,37.15
2023-03-17T13:17:52.582Z,36.77
2023-03-17T13:19:58.266Z,36.51
2023-03-17T13:22:33.623Z,36.68
2023-03-17T13:24:50.975Z,36.50
2023-03-17T13:27:00.841Z,38.07
2023-03-17T13:29:25.158Z,36.70
2023-03-17T13:31:36.545Z,37.06
2023-03-17T13:33:45.632Z,37.02
2023-03-17T13:36:06.563Z,34.89
2023-03-17T13:38:38.307Z,34.44
2023-03-17T13:40:59.050Z,35.63
2023-03-17T13:43:15.371Z,33.65
2023-03-17T13:45:27.176Z,34.35
2023-03-17T13:47:35.473Z,35.32
2023-03-17T13:49:38.372Z,35.48
2023-03-17T13:51:52.792Z,36.88
2023-03-17T13:54:10.650Z,35.38
2023-03-17T13:56:27.854Z,33.97
2023-03-17T13:58:35.169Z,35.14
2023-03-17T14:00:41.425Z,35.54
2023-03-17T14:02:45.226Z,34.29
2023-03-17T14:04:54.474Z,34.77
2023-03-17T14:07:00.851Z,34.03
2023-03-17T14:09:10.393Z,34.82
2023-03-17T14:11:22.541Z,35.99
2023-03-17T14:13:28.442Z,36.77
2023-03-17T14:15:40.706Z,34.67
2023-03-17T14:17:47.537Z,37.44
2023-03-17T14:20:08.147Z,37.99
2023-03-17T14:22:22.541Z,39.12
2023-03-17T14:24:29.620Z,36.36
2023-03-17T14:26:33.913Z,35.99
2023-03-17T14:28:36.903Z,36.58
2023-03-17T14:30:39.775Z,36.68
2023-03-17T14:32:49.049Z,37.06
2023-03-17T14:34:56.117Z,35.80
2023-03-17T14:37:02.163Z,36.95
2023-03-17T14:39:05.115Z,37.35
2023-03-17T14:41:17.306Z,37.79
2023-03-17T14:43:19.958Z,37.79
2023-03-17T14:45:29.806Z,39.32
2023-03-17T14:47:38.808Z,38.00
2023-03-17T14:49:43.045Z,37.27
2023-03-17T14:51:46.343Z,38.61
2023-03-17T14:53:49.350Z,36.90
2023-03-17T14:55:53.765Z,37.37
2023-03-17T14:57:56.512Z,37.39
2023-03-17T15:00:00.751Z,37.66
2023-03-17T15:02:16.728Z,37.33
2023-03-17T15:04:22.809Z,37.32
2023-03-17T15:06:29.597Z,36.81
2023-03-17T15:08:46.284Z,36.68
2023-03-17T15:10:49.088Z,37.08
2023-03-17T15:13:01.741Z,36.66
2023-03-17T15:15:07.554Z,36.64
2023-03-17T15:17:19.306Z,35.71
2023-03-17T15:19:27.645Z,35.62
2023-03-17T15:21:39.046Z,36.43
2023-03-17T15:23:41.762Z,36.85
2023-03-17T15:25:47.225Z,36.77
2023-03-17T15:27:50.175Z,36.66
2023-03-17T15:29:52.931Z,36.54
2023-03-17T15:32:02.398Z,36.28
2023-03-17T15:34:05.364Z,37.21
2023-03-17T15:36:14.462Z,37.73
2023-03-17T15:38:21.514Z,37.78
2023-03-17T15:40:24.302Z,38.17
2023-03-17T15:42:30.418Z,38.51
2023-03-17T15:44:33.078Z,37.84
2023-03-17T15:46:36.788Z,37.50
2023-03-17T15:48:39.539Z,38.75
2023-03-17T15:50:42.414Z,38.27
2023-03-17T15:52:46.175Z,38.76
2023-03-17T15:54:50.403Z,39.47
2023-03-17T15:56:53.049Z,39.00
2023-03-17T15:58:55.678Z,39.16
2023-03-17T16:00:59.664Z,38.23
2023-03-17T16:03:09.598Z,38.83
2023-03-17T16:05:17.640Z,39.05
2023-03-17T16:07:21.173Z,38.66
2023-03-17T16:09:23.846Z,39.24
2023-03-17T16:11:31.532Z,38.76
2023-03-17T16:13:34.363Z,39.47
2023-03-17T16:15:39.450Z,39.32
2023-03-17T16:17:42.800Z,39.36
2023-03-17T16:19:45.846Z,39.86
2023-03-17T16:21:49.360Z,40.33
2023-03-17T16:23:52.085Z,40.58
2023-03-17T16:26:04.586Z,40.13
2023-03-17T16:28:18.192Z,40.79
2023-03-17T16:30:22.930Z,41.10
2023-03-17T16:32:25.695Z,41.07
2023-03-17T16:34:28.388Z,40.98
2023-03-17T16:36:30.995Z,41.06
2023-03-17T16:38:35.086Z,41.14
2023-03-17T16:40:39.358Z,41.04
2023-03-17T16:42:42.812Z,41.31
2023-03-17T16:44:46.980Z,41.90
2023-03-17T16:46:49.763Z,42.32
2023-03-17T16:48:52.544Z,42.81
2023-03-17T16:50:55.667Z,42.75
2023-03-17T16:52:59.396Z,42.88
2023-03-17T16:55:02.078Z,43.12
2023-03-17T16:57:07.588Z,43.74
2023-03-17T16:59:20.362Z,44.06
2023-03-17T17:01:28.138Z,43.54
2023-03-17T17:03:31.400Z,43.69
2023-03-17T17:05:34.344Z,43.94
2023-03-17T17:07:36.961Z,44.42
2023-03-17T17:09:39.619Z,44.40
2023-03-17T17:11:42.292Z,44.85
2023-03-17T17:13:46.822Z,45.30
2023-03-17T17:15:50.181Z,45.49
2023-03-17T17:17:57.693Z,45.85
2023-03-17T17:20:01.917Z,45.66
2023-03-17T17:22:04.734Z,45.69
2023-03-17T17:24:07.650Z,45.37
2023-03-17T17:26:10.757Z,44.76
2023-03-17T17:28:15.273Z,45.42
2023-03-17T17:30:20.204Z,46.03
2023-03-17T17:32:23.737Z,45.75
2023-03-17T17:34:27.724Z,46.29
2023-03-17T17:36:31.085Z,45.15
2023-03-17T17:38:33.751Z,45.29
2023-03-17T17:40:37.343Z,46.86
2023-03-17T17:42:40.843Z,47.87
2023-03-17T17:44:43.768Z,47.64
2023-03-17T17:46:46.676Z,48.16
2023-03-17T17:48:50.058Z,47.47
2023-03-17T17:50:55.381Z,46.60
2023-03-17T17:53:04.825Z,45.89
2023-03-17T17:55:08.019Z,46.41
2023-03-17T17:57:11.904Z,46.23
2023-03-17T17:59:14.757Z,46.77
2023-03-17T18:01:21.792Z,46.48
2023-03-17T18:03:25.274Z,46.26
2023-03-17T18:05:28.076Z,46.22
2023-03-17T18:07:32.292Z,46.14
2023-03-17T18:09:34.903Z,46.69
2023-03-17T18:11:38.543Z,46.05
2023-03-17T18:13:41.224Z,47.04
2023-03-17T18:15:44.113Z,46.54
2023-03-17T18:17:47.010Z,47.06
2023-03-17T18:19:50.013Z,46.97
2023-03-17T18:21:52.875Z,47.26
2023-03-17T18:23:57.103Z,46.70
2023-03-17T18:26:01.072Z,46.57
2023-03-17T18:28:04.003Z,47.05
2023-03-17T18:30:10.434Z,46.76
2023-03-17T18:32:14.349Z,46.49
2023-03-17T18:34:20.772Z,47.60
2023-03-17T18:36:23.854Z,47.22
2023-03-17T18:38:28.590Z,47.54
2023-03-17T18:40:32.558Z,47.54
2023-03-17T18:42:35.274Z,47.10
2023-03-17T18:44:39.939Z,47.22
2023-03-17T18:46:42.721Z,46.86
2023-03-17T18:48:45.410Z,45.77
2023-03-17T18:50:48.097Z,46.62
2023-03-17T18:52:51.343Z,46.73
2023-03-17T18:54:53.967Z,46.68
2023-03-17T18:56:58.053Z,47.10
2023-03-17T18:59:01.070Z,47.39
2023-03-17T19:01:03.855Z,47.67
2023-03-17T19:03:06.981Z,47.49
2023-03-17T19:05:11.479Z,46.50
2023-03-17T19:07:14.454Z,47.60
2023-03-17T19:09:17.050Z,47.61
2023-03-17T19:11:21.576Z,47.75
2023-03-17T19:13:26.447Z,47.89
2023-03-17T19:15:29.144Z,47.32
2023-03-17T19:17:32.153Z,47.15
2023-03-17T19:19:35.309Z,47.09
2023-03-17T19:21:38.141Z,47.12
2023-03-17T19:23:41.587Z,47.19
2023-03-17T19:25:44.289Z,47.16
2023-03-17T19:27:46.965Z,47.47
2023-03-17T19:29:50.987Z,48.22
2023-03-17T19:31:53.629Z,48.23
2023-03-17T19:33:56.460Z,48.22
2023-03-17T19:36:00.296Z,47.96
2023-03-17T19:38:03.988Z,48.38
2023-03-17T19:40:09.531Z,47.80
2023-03-17T19:42:12.541Z,48.40
2023-03-17T19:44:15.494Z,48.49
2023-03-17T19:46:19.569Z,48.48
2023-03-17T19:48:22.642Z,48.60
2023-03-17T19:50:26.170Z,48.31
2023-03-17T19:52:28.998Z,48.63
2023-03-17T19:54:31.628Z,48.28
2023-03-17T19:56:34.329Z,48.58
2023-03-17T19:58:37.329Z,48.63
2023-03-17T20:00:42.123Z,49.12
2023-03-17T20:02:46.368Z,49.49
2023-03-17T20:04:50.033Z,49.75
2023-03-17T20:06:55.547Z,49.79
2023-03-17T20:08:58.796Z,49.32
2023-03-17T20:11:01.688Z,49.55
2023-03-17T20:13:04.375Z,49.30
2023-03-17T20:15:08.736Z,49.74
2023-03-17T20:17:12.030Z,50.09
2023-03-17T20:19:16.462Z,50.18
2023-03-17T20:21:19.138Z,50.04
2023-03-17T20:23:22.610Z,50.60
2023-03-17T20:25:25.556Z,51.00
2023-03-17T20:27:28.826Z,50.67
2023-03-17T20:29:31.581Z,50.45
2023-03-17T20:31:34.456Z,50.81
2023-03-17T20:33:37.140Z,50.83
2023-03-17T20:35:43.095Z,50.80
2023-03-17T20:37:46.053Z,51.08
2023-03-17T20:39:48.760Z,51.28
2023-03-17T20:41:52.338Z,51.09
2023-03-17T20:43:54.968Z,50.62
2023-03-17T20:45:57.614Z,50.86
2023-03-17T20:48:00.849Z,51.42
2023-03-17T20:50:06.165Z,50.99
2023-03-17T20:52:13.091Z,51.71
2023-03-17T20:54:15.802Z,51.12
2023-03-17T20:56:20.760Z,51.58
2023-03-17T20:58:23.564Z,51.95
2023-03-17T21:00:26.733Z,51.58
2023-03-17T21:02:29.463Z,52.56
2023-03-17T21:04:32.229Z,52.21
2023-03-17T21:06:35.164Z,53.02
2023-03-17T21:08:39.627Z,52.24
2023-03-17T21:10:42.365Z,52.61
2023-03-17T21:12:45.112Z,52.89
2023-03-17T21:14:48.993Z,52.21
2023-03-17T21:16:51.775Z,51.63
2023-03-17T21:18:54.925Z,52.40
2023-03-17T21:20:57.796Z,52.52
2023-03-17T21:23:00.411Z,52.71
2023-03-17T21:25:04.641Z,52.08
2023-03-17T21:27:11.076Z,52.09
2023-03-17T21:29:13.720Z,52.39
2023-03-17T21:31:17.312Z,52.73
2023-03-17T21:33:21.409Z,53.09
2023-03-17T21:35:25.043Z,52.95
2023-03-17T21:37:27.914Z,53.21
2023-03-17T21:39:30.566Z,53.62
2023-03-17T21:41:37.060Z,54.07
2023-03-17T21:43:40.342Z,53.66
2023-03-17T21:45:44.156Z,53.27
2023-03-17T21:47:46.993Z,53.77
2023-03-17T21:49:49.711Z,54.30
2023-03-17T21:51:52.566Z,53.91
2023-03-17T21:53:55.234Z,54.02
2023-03-17T21:55:57.915Z,53.91
2023-03-17T21:58:02.373Z,54.07
2023-03-17T22:00:06.213Z,53.87
2023-03-17T22:02:12.335Z,54.58
2023-03-17T22:04:15.470Z,54.59
2023-03-17T22:06:18.791Z,54.72
2023-03-17T22:08:21.706Z,55.07
2023-03-17T22:10:24.363Z,55.30
2023-03-17T22:12:27.065Z,54.64
2023-03-17T22:14:31.258Z,55.13
2023-03-17T22:16:34.082Z,54.45
2023-03-17T22:18:37.359Z,54.21
2023-03-17T22:20:40.102Z,54.10
2023-03-17T22:22:42.742Z,54.12
2023-03-17T22:24:45.527Z,53.46
2023-03-17T22:26:49.071Z,53.27
2023-03-17T22:28:51.934Z,53.09
2023-03-17T22:30:56.030Z,52.08
2023-03-17T22:32:58.793Z,52.65
2023-03-17T22:35:01.519Z,52.79
2023-03-17T22:37:04.981Z,52.04
2023-03-17T22:39:08.899Z,52.57
2023-03-17T22:41:14.375Z,52.41
2023-03-17T22:43:17.093Z,52.20
2023-03-17T22:45:19.809Z,52.49
2023-03-17T22:47:23.829Z,53.43
2023-03-17T22:49:26.569Z,52.99
2023-03-17T22:51:29.314Z,53.41
2023-03-17T22:53:32.925Z,52.91
2023-03-17T22:55:36.401Z,52.01
2023-03-17T22:57:39.204Z,52.28
2023-03-17T22:59:41.888Z,53.09
2023-03-17T23:01:45.780Z,53.79
2023-03-17T23:03:50.093Z,53.44
2023-03-17T23:05:57.054Z,52.67
2023-03-17T23:07:59.766Z,52.52
2023-03-17T23:10:04.326Z,53.01
2023-03-17T23:12:07.992Z,53.76
2023-03-17T23:14:11.471Z,53.93
2023-03-17T23:16:14.554Z,53.77
2023-03-17T23:18:17.788Z,53.70
2023-03-17T23:20:21.790Z,53.53
2023-03-17T23:22:24.659Z,53.56
2023-03-17T23:24:27.362Z,54.00
2023-03-17T23:26:30.112Z,53.70
2023-03-17T23:28:32.946Z,53.80
2023-03-17T23:30:37.060Z,53.09
2023-03-17T23:32:40.573Z,52.49
2023-03-17T23:34:43.282Z,52.43
2023-03-17T23:36:47.333Z,51.93
2023-03-17T23:38:50.352Z,52.31
2023-03-17T23:40:56.603Z,52.80
2023-03-17T23:42:59.746Z,52.60
2023-03-17T23:45:02.510Z,53.19
2023-03-17T23:47:05.273Z,52.40
2023-03-17T23:49:08.336Z,51.96
2023-03-17T23:51:12.357Z,52.36
2023-03-17T23:53:16.383Z,51.99
2023-03-17T23:55:19.309Z,52.16
2023-03-17T23:57:22.738Z,52.52
2023-03-17T23:59:25.486Z,52.31
